Terminal Aerodrome Forecast
Issued by NWS

Home | Current Version | Previous Version | Text Only | Print | Product List | Glossary On
Versions: 1 2 3 4 5 6 7 8 9 10 11 12
666
FTUS45 KVEF 271139
TAFVGT
TAF
KVGT 271139Z 2712/2812 17016G24KT P6SM FEW050 BKN220
     FM280300 24008KT P6SM SCT250
     FM280700 32012KT P6SM FEW250=

USA.gov is the U.S. government's official web portal to all federal, state and local government web resources and services.